createdAt,value
2022-10-12T00:10:26.351Z,3.10
2022-10-12T00:32:17.830Z,3.23
2022-10-12T00:37:29.811Z,3.33
2022-10-12T00:42:59.051Z,3.00
2022-10-12T00:48:08.677Z,2.90
2022-10-12T00:53:29.236Z,3.33
2022-10-12T00:58:39.625Z,3.10
2022-10-12T01:03:50.066Z,2.90
2022-10-12T01:09:00.795Z,3.10
2022-10-12T01:14:28.532Z,2.80
2022-10-12T01:25:16.255Z,3.00
2022-10-12T01:30:33.673Z,3.57
2022-10-12T01:41:16.203Z,2.67
2022-10-12T01:46:26.271Z,2.70
2022-10-12T01:51:39.303Z,3.03
2022-10-12T01:56:53.569Z,2.60
2022-10-12T02:02:08.817Z,2.77
2022-10-12T02:07:20.576Z,2.83
2022-10-12T02:12:30.415Z,2.40
2022-10-12T02:17:42.319Z,2.80
2022-10-12T02:22:54.632Z,2.90
2022-10-12T02:28:07.288Z,3.20
2022-10-12T02:33:22.616Z,3.10
2022-10-12T02:38:34.623Z,2.90
2022-10-12T02:43:46.212Z,2.83
2022-10-12T02:49:00.841Z,2.90
2022-10-12T02:54:10.617Z,3.00
2022-10-12T02:59:25.831Z,3.20
2022-10-12T03:04:37.660Z,2.90
2022-10-12T03:09:48.048Z,2.87
2022-10-12T03:14:58.081Z,3.00
2022-10-12T03:20:11.822Z,3.13
2022-10-12T03:25:21.536Z,3.07
2022-10-12T03:30:32.535Z,3.00
2022-10-12T03:35:45.831Z,2.90
2022-10-12T03:40:55.147Z,2.97
2022-10-12T03:46:05.991Z,3.20
2022-10-12T03:52:08.687Z,3.10
2022-10-12T04:03:25.112Z,2.83
2022-10-12T04:08:40.238Z,2.87
2022-10-12T04:19:33.294Z,3.17
2022-10-12T04:30:22.690Z,3.47
2022-10-12T04:35:37.982Z,3.07
2022-10-12T04:46:21.107Z,3.43
2022-10-12T04:51:32.670Z,3.40
2022-10-12T04:56:47.492Z,3.13
2022-10-12T05:02:11.278Z,2.77
2022-10-12T05:07:35.907Z,2.63
2022-10-12T05:12:47.149Z,2.70
2022-10-12T05:23:58.083Z,2.23
2022-10-12T05:29:21.343Z,2.20
2022-10-12T05:34:30.206Z,2.30
2022-10-12T05:39:41.898Z,2.10
2022-10-12T05:45:17.011Z,2.20
2022-10-12T05:50:29.931Z,2.10
2022-10-12T05:56:03.001Z,2.23
2022-10-12T06:01:18.423Z,2.47
2022-10-12T06:06:33.193Z,2.37
2022-10-12T06:11:42.252Z,2.30
2022-10-12T06:17:33.631Z,2.20
2022-10-12T06:22:24.392Z,2.03
2022-10-12T06:27:36.504Z,2.10
2022-10-12T06:32:56.526Z,2.27
2022-10-12T06:38:26.926Z,2.20
2022-10-12T06:43:37.424Z,2.27
2022-10-12T06:48:55.064Z,2.47
2022-10-12T07:05:51.135Z,2.60
2022-10-12T07:12:08.477Z,2.20
2022-10-12T07:17:07.971Z,2.87
2022-10-12T07:22:45.819Z,4.30
2022-10-12T07:27:59.797Z,5.23
2022-10-12T07:33:14.031Z,4.53
2022-10-12T07:38:33.923Z,5.57
2022-10-12T07:44:05.891Z,5.40
2022-10-12T07:49:45.094Z,5.70
2022-10-12T07:55:01.023Z,5.20
2022-10-12T08:00:12.320Z,5.47
2022-10-12T08:11:16.005Z,4.40
2022-10-12T08:16:26.088Z,3.20
2022-10-12T08:21:37.988Z,3.70
2022-10-12T08:32:27.238Z,3.70
2022-10-12T08:37:46.040Z,3.50
2022-10-12T08:42:58.740Z,3.37
2022-10-12T08:48:09.994Z,3.47
2022-10-12T08:53:20.723Z,4.00
2022-10-12T08:58:35.461Z,4.30
2022-10-12T09:03:47.329Z,4.20
2022-10-12T09:08:58.810Z,4.47
2022-10-12T09:14:10.411Z,4.03
2022-10-12T09:19:26.676Z,4.20
2022-10-12T09:24:51.856Z,3.53
2022-10-12T09:30:04.595Z,3.87
2022-10-12T09:35:15.783Z,4.20
2022-10-12T09:40:26.599Z,4.10
2022-10-12T09:45:37.964Z,4.43
2022-10-12T09:50:53.744Z,4.17
2022-10-12T09:56:11.726Z,4.27
2022-10-12T10:01:24.859Z,4.53
2022-10-12T10:06:38.818Z,4.13
2022-10-12T10:11:46.187Z,3.87
2022-10-12T10:17:01.738Z,4.17
2022-10-12T10:22:19.540Z,4.63
2022-10-12T10:27:32.886Z,4.27
2022-10-12T10:32:45.662Z,4.10
2022-10-12T10:38:03.586Z,3.80
2022-10-12T10:43:14.910Z,4.30
2022-10-12T10:48:31.729Z,3.80
2022-10-12T10:53:50.168Z,3.67
2022-10-12T10:59:09.637Z,4.00
2022-10-12T11:04:23.950Z,3.57
2022-10-12T11:09:37.278Z,4.00
2022-10-12T11:20:21.038Z,3.97
2022-10-12T11:25:38.024Z,3.90
2022-10-12T11:30:55.936Z,3.80
2022-10-12T11:36:19.473Z,3.63
2022-10-12T11:41:35.455Z,3.47
2022-10-12T11:46:46.943Z,3.57
2022-10-12T11:52:04.306Z,3.60
2022-10-12T11:57:15.165Z,2.93
2022-10-12T12:02:28.650Z,2.90
2022-10-12T12:07:45.593Z,2.80
2022-10-12T12:13:01.466Z,2.97
2022-10-12T12:18:13.745Z,3.30
2022-10-12T12:23:33.130Z,3.33
2022-10-12T12:28:44.105Z,2.60
2022-10-12T12:33:58.723Z,2.70
2022-10-12T12:39:16.800Z,2.70
2022-10-12T12:44:33.587Z,3.23
2022-10-12T12:49:47.572Z,2.63
2022-10-12T12:55:02.874Z,1.97
2022-10-12T13:00:12.176Z,2.97
2022-10-12T13:05:25.667Z,3.00
2022-10-12T13:10:43.713Z,2.67
2022-10-12T13:15:54.364Z,2.50
2022-10-12T13:21:02.324Z,1.73
2022-10-12T13:26:19.635Z,2.43
2022-10-12T13:31:36.402Z,2.80
2022-10-12T13:36:51.563Z,2.97
2022-10-12T13:42:03.911Z,2.20
2022-10-12T13:47:17.563Z,2.10
2022-10-12T13:52:32.619Z,2.30
2022-10-12T13:57:47.531Z,2.20
2022-10-12T14:03:02.433Z,2.20
2022-10-12T14:08:18.900Z,2.50
2022-10-12T14:13:31.089Z,2.67
2022-10-12T14:18:44.111Z,2.33
2022-10-12T14:24:07.591Z,2.90
2022-10-12T14:29:20.080Z,2.87
2022-10-12T14:34:29.955Z,3.00
2022-10-12T14:39:48.796Z,4.30
2022-10-12T14:45:16.029Z,4.23
2022-10-12T14:50:30.581Z,3.63
2022-10-12T14:55:39.771Z,4.13
2022-10-12T15:00:49.418Z,3.97
2022-10-12T15:05:59.870Z,3.97
2022-10-12T15:11:10.223Z,3.83
2022-10-12T15:16:25.734Z,4.17
2022-10-12T15:21:34.317Z,4.13
2022-10-12T15:26:45.198Z,3.87
2022-10-12T15:31:55.519Z,3.73
2022-10-12T15:37:09.108Z,4.10
2022-10-12T15:42:16.589Z,4.33
2022-10-12T15:47:29.536Z,4.57
2022-10-12T15:52:47.218Z,4.30
2022-10-12T15:57:56.257Z,4.60
2022-10-12T16:03:04.577Z,3.90
2022-10-12T16:08:13.026Z,3.90
2022-10-12T16:13:22.234Z,3.47
2022-10-12T16:18:30.834Z,3.60
2022-10-12T16:23:40.683Z,3.27
2022-10-12T16:28:49.117Z,3.40
2022-10-12T16:33:59.214Z,3.53
2022-10-12T16:39:11.477Z,3.33
2022-10-12T16:44:25.219Z,3.63
2022-10-12T16:49:33.262Z,3.60
2022-10-12T16:54:43.973Z,3.43
2022-10-12T16:59:57.425Z,3.53
2022-10-12T17:05:07.799Z,3.30
2022-10-12T17:10:15.646Z,3.47
2022-10-12T17:15:26.081Z,4.10
2022-10-12T17:20:35.239Z,3.60
2022-10-12T17:25:45.047Z,3.60
2022-10-12T17:31:09.265Z,3.83
2022-10-12T17:36:16.111Z,3.40
2022-10-12T17:41:26.159Z,4.10
2022-10-12T17:46:37.950Z,4.60
2022-10-12T17:51:56.231Z,4.27
2022-10-12T17:57:05.403Z,3.43
2022-10-12T18:02:14.103Z,3.63
2022-10-12T18:07:22.471Z,3.37
2022-10-12T18:12:30.440Z,3.50
2022-10-12T18:17:39.827Z,3.50
2022-10-12T18:22:48.782Z,4.07
2022-10-12T18:27:57.409Z,3.13
2022-10-12T18:33:06.102Z,3.20
2022-10-12T18:38:13.535Z,3.00
2022-10-12T18:43:21.523Z,3.20
2022-10-12T18:48:29.440Z,4.03
2022-10-12T18:53:38.115Z,3.33
2022-10-12T18:58:46.383Z,3.20
2022-10-12T19:03:56.594Z,3.80
2022-10-12T19:09:05.684Z,3.30
2022-10-12T19:14:16.418Z,3.20
2022-10-12T19:19:24.943Z,3.07
2022-10-12T19:24:33.502Z,2.60
2022-10-12T19:29:45.553Z,3.33
2022-10-12T19:34:53.114Z,3.40
2022-10-12T19:40:07.656Z,2.63
2022-10-12T19:45:18.766Z,2.80
2022-10-12T19:50:28.548Z,2.70
2022-10-12T19:55:38.367Z,3.03
2022-10-12T20:00:51.054Z,3.07
2022-10-12T20:06:03.701Z,2.83
2022-10-12T20:11:23.757Z,3.27
2022-10-12T20:16:34.645Z,3.37
2022-10-12T20:21:42.715Z,3.50
2022-10-12T20:26:52.324Z,3.30
2022-10-12T20:32:01.803Z,3.37
2022-10-12T20:42:40.958Z,3.60
2022-10-12T20:47:48.846Z,3.53
2022-10-12T20:52:59.100Z,3.83
2022-10-12T21:03:45.282Z,3.67
2022-10-12T21:08:55.637Z,3.70
2022-10-12T21:14:07.638Z,4.00
2022-10-12T21:19:22.230Z,4.13
2022-10-12T21:24:34.333Z,4.23
2022-10-12T21:29:47.826Z,3.90
2022-10-12T21:34:58.749Z,4.10
2022-10-12T21:40:12.142Z,4.63
2022-10-12T21:45:25.447Z,4.17
2022-10-12T21:50:39.342Z,3.67
2022-10-12T21:55:52.529Z,4.07
2022-10-12T22:01:04.828Z,4.00
2022-10-12T22:06:15.156Z,3.83
2022-10-12T22:11:23.279Z,3.60
2022-10-12T22:16:32.387Z,4.10
2022-10-12T22:21:40.352Z,4.10
2022-10-12T22:26:47.676Z,3.77
2022-10-12T22:31:55.306Z,4.13
2022-10-12T22:37:09.182Z,4.00
2022-10-12T22:42:17.531Z,3.80
2022-10-12T22:47:26.968Z,3.80
2022-10-12T22:52:40.071Z,3.90
2022-10-12T22:57:53.984Z,4.17
2022-10-12T23:03:06.107Z,4.70
2022-10-12T23:08:16.721Z,3.80
2022-10-12T23:13:26.973Z,4.20
2022-10-12T23:18:42.202Z,4.30
2022-10-12T23:23:58.364Z,4.27
2022-10-12T23:29:09.722Z,4.83
2022-10-12T23:34:26.629Z,4.20
2022-10-12T23:39:36.931Z,4.07
2022-10-12T23:50:21.379Z,4.60
2022-10-12T23:55:31.962Z,4.53
